sensor_id;sensor_type;location;lat;lon;timestamp;temperature;humidity
506;DHT22;551;48.524;9.056;2023-10-19T00:01:21;12.30;1.00
506;DHT22;551;48.524;9.056;2023-10-19T00:03:51;12.30;1.00
506;DHT22;551;48.524;9.056;2023-10-19T00:06:18;12.30;1.00
506;DHT22;551;48.524;9.056;2023-10-19T00:08:44;12.30;1.00
506;DHT22;551;48.524;9.056;2023-10-19T00:11:10;12.30;1.00
506;DHT22;551;48.524;9.056;2023-10-19T00:13:46;12.30;1.00
506;DHT22;551;48.524;9.056;2023-10-19T00:16:15;12.30;1.00
506;DHT22;551;48.524;9.056;2023-10-19T00:18:48;12.30;1.00
506;DHT22;551;48.524;9.056;2023-10-19T00:21:14;12.40;1.00
506;DHT22;551;48.524;9.056;2023-10-19T00:23:51;12.40;1.00
506;DHT22;551;48.524;9.056;2023-10-19T00:26:20;12.40;1.00
506;DHT22;551;48.524;9.056;2023-10-19T00:28:46;12.40;1.00
506;DHT22;551;48.524;9.056;2023-10-19T00:31:18;12.40;1.00
506;DHT22;551;48.524;9.056;2023-10-19T00:33:45;12.40;1.00
506;DHT22;551;48.524;9.056;2023-10-19T00:36:12;12.40;1.00
506;DHT22;551;48.524;9.056;2023-10-19T00:38:41;12.40;1.00
506;DHT22;551;48.524;9.056;2023-10-19T00:41:21;12.40;1.00
506;DHT22;551;48.524;9.056;2023-10-19T00:43:49;12.40;1.00
506;DHT22;551;48.524;9.056;2023-10-19T00:46:16;12.40;1.00
506;DHT22;551;48.524;9.056;2023-10-19T00:48:48;12.40;1.00
506;DHT22;551;48.524;9.056;2023-10-19T00:51:22;12.50;1.00
506;DHT22;551;48.524;9.056;2023-10-19T00:53:58;12.50;1.00
506;DHT22;551;48.524;9.056;2023-10-19T00:56:27;12.40;1.00
506;DHT22;551;48.524;9.056;2023-10-19T00:58:57;12.40;1.00
506;DHT22;551;48.524;9.056;2023-10-19T01:01:28;12.50;1.00
506;DHT22;551;48.524;9.056;2023-10-19T01:03:54;12.50;1.00
506;DHT22;551;48.524;9.056;2023-10-19T01:06:23;12.50;1.00
506;DHT22;551;48.524;9.056;2023-10-19T01:08:48;12.50;1.00
506;DHT22;551;48.524;9.056;2023-10-19T01:11:16;12.50;1.00
506;DHT22;551;48.524;9.056;2023-10-19T01:13:46;12.50;1.00
506;DHT22;551;48.524;9.056;2023-10-19T01:16:14;12.50;1.00
506;DHT22;551;48.524;9.056;2023-10-19T01:18:46;12.50;1.00
506;DHT22;551;48.524;9.056;2023-10-19T01:21:11;12.50;1.00
506;DHT22;551;48.524;9.056;2023-10-19T01:23:37;12.50;1.00
506;DHT22;551;48.524;9.056;2023-10-19T01:26:04;12.60;1.00
506;DHT22;551;48.524;9.056;2023-10-19T01:28:38;12.60;1.00
506;DHT22;551;48.524;9.056;2023-10-19T01:31:25;12.60;1.00
506;DHT22;551;48.524;9.056;2023-10-19T01:33:54;12.50;1.00
506;DHT22;551;48.524;9.056;2023-10-19T01:36:24;12.60;1.00
506;DHT22;551;48.524;9.056;2023-10-19T01:38:50;12.50;1.00
506;DHT22;551;48.524;9.056;2023-10-19T01:41:19;12.60;1.00
506;DHT22;551;48.524;9.056;2023-10-19T01:43:47;12.60;1.00
506;DHT22;551;48.524;9.056;2023-10-19T01:46:17;12.60;1.00
506;DHT22;551;48.524;9.056;2023-10-19T01:48:52;12.60;1.00
506;DHT22;551;48.524;9.056;2023-10-19T01:51:22;12.70;1.00
506;DHT22;551;48.524;9.056;2023-10-19T01:53:49;12.70;1.00
506;DHT22;551;48.524;9.056;2023-10-19T01:56:16;12.70;1.00
506;DHT22;551;48.524;9.056;2023-10-19T01:58:44;12.70;1.00
506;DHT22;551;48.524;9.056;2023-10-19T02:01:13;12.80;1.00
506;DHT22;551;48.524;9.056;2023-10-19T02:03:39;12.80;1.00
506;DHT22;551;48.524;9.056;2023-10-19T02:06:09;12.70;1.00
506;DHT22;551;48.524;9.056;2023-10-19T02:08:52;12.70;1.00
506;DHT22;551;48.524;9.056;2023-10-19T02:11:25;12.70;1.00
506;DHT22;551;48.524;9.056;2023-10-19T02:13:52;12.70;1.00
506;DHT22;551;48.524;9.056;2023-10-19T02:16:19;12.70;1.00
506;DHT22;551;48.524;9.056;2023-10-19T02:18:49;12.70;1.00
506;DHT22;551;48.524;9.056;2023-10-19T02:21:16;12.70;1.00
506;DHT22;551;48.524;9.056;2023-10-19T02:23:50;12.70;1.00
506;DHT22;551;48.524;9.056;2023-10-19T02:26:19;12.80;1.00
506;DHT22;551;48.524;9.056;2023-10-19T02:28:47;12.80;1.00
506;DHT22;551;48.524;9.056;2023-10-19T02:31:12;12.80;1.00
506;DHT22;551;48.524;9.056;2023-10-19T02:33:47;12.70;1.00
506;DHT22;551;48.524;9.056;2023-10-19T02:36:17;12.60;1.00
506;DHT22;551;48.524;9.056;2023-10-19T02:38:45;12.50;1.00
506;DHT22;551;48.524;9.056;2023-10-19T02:41:15;12.40;1.00
506;DHT22;551;48.524;9.056;2023-10-19T02:43:41;12.30;1.00
506;DHT22;551;48.524;9.056;2023-10-19T02:46:11;12.30;1.00
506;DHT22;551;48.524;9.056;2023-10-19T02:48:38;12.20;1.00
506;DHT22;551;48.524;9.056;2023-10-19T02:51:04;12.10;1.00
506;DHT22;551;48.524;9.056;2023-10-19T02:53:37;12.10;1.00
506;DHT22;551;48.524;9.056;2023-10-19T02:56:13;12.10;1.00
506;DHT22;551;48.524;9.056;2023-10-19T02:58:43;12.00;1.00
506;DHT22;551;48.524;9.056;2023-10-19T03:01:20;12.00;1.00
506;DHT22;551;48.524;9.056;2023-10-19T03:03:53;11.90;1.00
506;DHT22;551;48.524;9.056;2023-10-19T03:06:22;11.90;1.00
506;DHT22;551;48.524;9.056;2023-10-19T03:08:49;11.90;1.00
506;DHT22;551;48.524;9.056;2023-10-19T03:11:21;11.80;1.00
506;DHT22;551;48.524;9.056;2023-10-19T03:13:46;11.80;1.00
506;DHT22;551;48.524;9.056;2023-10-19T03:16:15;11.80;1.00
506;DHT22;551;48.524;9.056;2023-10-19T03:18:41;11.70;1.00
506;DHT22;551;48.524;9.056;2023-10-19T03:21:06;11.70;1.00
506;DHT22;551;48.524;9.056;2023-10-19T03:23:32;11.70;1.00
506;DHT22;551;48.524;9.056;2023-10-19T03:26:00;11.60;1.00
506;DHT22;551;48.524;9.056;2023-10-19T03:28:49;11.60;1.00
506;DHT22;551;48.524;9.056;2023-10-19T03:31:21;11.60;1.00
506;DHT22;551;48.524;9.056;2023-10-19T03:33:47;11.60;1.00
506;DHT22;551;48.524;9.056;2023-10-19T03:36:20;11.50;1.00
506;DHT22;551;48.524;9.056;2023-10-19T03:38:46;11.50;1.00
506;DHT22;551;48.524;9.056;2023-10-19T03:41:11;11.40;1.00
506;DHT22;551;48.524;9.056;2023-10-19T03:43:37;11.40;1.00
506;DHT22;551;48.524;9.056;2023-10-19T03:46:06;11.40;1.00
506;DHT22;551;48.524;9.056;2023-10-19T03:48:55;11.30;1.00
506;DHT22;551;48.524;9.056;2023-10-19T03:51:25;11.40;1.00
506;DHT22;551;48.524;9.056;2023-10-19T03:53:52;11.40;1.00
506;DHT22;551;48.524;9.056;2023-10-19T03:56:24;11.40;1.00
506;DHT22;551;48.524;9.056;2023-10-19T03:58:50;11.30;1.00
506;DHT22;551;48.524;9.056;2023-10-19T04:01:17;11.30;1.00
506;DHT22;551;48.524;9.056;2023-10-19T04:03:45;11.30;1.00
506;DHT22;551;48.524;9.056;2023-10-19T04:06:10;11.30;1.00
506;DHT22;551;48.524;9.056;2023-10-19T04:08:40;11.30;1.00
506;DHT22;551;48.524;9.056;2023-10-19T04:11:07;11.20;1.00
506;DHT22;551;48.524;9.056;2023-10-19T04:13:47;11.20;1.00
506;DHT22;551;48.524;9.056;2023-10-19T04:16:13;11.10;1.00
506;DHT22;551;48.524;9.056;2023-10-19T04:18:39;11.10;1.00
506;DHT22;551;48.524;9.056;2023-10-19T04:21:09;11.10;1.00
506;DHT22;551;48.524;9.056;2023-10-19T04:23:35;11.00;1.00
506;DHT22;551;48.524;9.056;2023-10-19T04:26:01;11.00;1.00
506;DHT22;551;48.524;9.056;2023-10-19T04:28:42;11.00;1.00
506;DHT22;551;48.524;9.056;2023-10-19T04:31:12;10.90;1.00
506;DHT22;551;48.524;9.056;2023-10-19T04:33:41;10.90;1.00
506;DHT22;551;48.524;9.056;2023-10-19T04:36:14;10.90;1.00
506;DHT22;551;48.524;9.056;2023-10-19T04:38:40;10.90;1.00
506;DHT22;551;48.524;9.056;2023-10-19T04:41:07;10.90;1.00
506;DHT22;551;48.524;9.056;2023-10-19T04:43:34;10.90;1.00
506;DHT22;551;48.524;9.056;2023-10-19T04:46:03;10.90;1.00
506;DHT22;551;48.524;9.056;2023-10-19T04:48:33;10.90;1.00
506;DHT22;551;48.524;9.056;2023-10-19T04:50:58;10.90;1.00
506;DHT22;551;48.524;9.056;2023-10-19T04:53:23;10.90;1.00
506;DHT22;551;48.524;9.056;2023-10-19T04:55:49;10.90;1.00
506;DHT22;551;48.524;9.056;2023-10-19T04:58:15;10.90;1.00
506;DHT22;551;48.524;9.056;2023-10-19T05:00:41;10.90;1.00
506;DHT22;551;48.524;9.056;2023-10-19T05:03:06;11.00;1.00
506;DHT22;551;48.524;9.056;2023-10-19T05:05:32;11.00;1.00
506;DHT22;551;48.524;9.056;2023-10-19T05:07:58;11.00;1.00
506;DHT22;551;48.524;9.056;2023-10-19T05:10:26;11.00;1.00
506;DHT22;551;48.524;9.056;2023-10-19T05:12:52;11.10;1.00
506;DHT22;551;48.524;9.056;2023-10-19T05:15:20;11.00;1.00
506;DHT22;551;48.524;9.056;2023-10-19T05:17:45;11.10;1.00
506;DHT22;551;48.524;9.056;2023-10-19T05:20:11;11.10;1.00
506;DHT22;551;48.524;9.056;2023-10-19T05:22:37;11.10;1.00
506;DHT22;551;48.524;9.056;2023-10-19T05:25:02;11.10;1.00
506;DHT22;551;48.524;9.056;2023-10-19T05:27:29;11.10;1.00
506;DHT22;551;48.524;9.056;2023-10-19T05:29:54;11.10;1.00
506;DHT22;551;48.524;9.056;2023-10-19T05:32:20;11.10;1.00
506;DHT22;551;48.524;9.056;2023-10-19T05:34:46;11.10;1.00
506;DHT22;551;48.524;9.056;2023-10-19T05:37:12;11.10;1.00
506;DHT22;551;48.524;9.056;2023-10-19T05:39:38;11.10;1.00
506;DHT22;551;48.524;9.056;2023-10-19T05:42:03;11.20;1.00
506;DHT22;551;48.524;9.056;2023-10-19T05:44:29;11.20;1.00
506;DHT22;551;48.524;9.056;2023-10-19T05:46:56;11.30;1.00
506;DHT22;551;48.524;9.056;2023-10-19T05:49:22;11.30;1.00
506;DHT22;551;48.524;9.056;2023-10-19T05:51:49;11.30;1.00
506;DHT22;551;48.524;9.056;2023-10-19T05:54:15;11.30;1.00
506;DHT22;551;48.524;9.056;2023-10-19T05:56:40;11.40;1.00
506;DHT22;551;48.524;9.056;2023-10-19T05:59:06;11.40;1.00
506;DHT22;551;48.524;9.056;2023-10-19T06:01:32;11.40;1.00
506;DHT22;551;48.524;9.056;2023-10-19T06:03:58;11.40;1.00
506;DHT22;551;48.524;9.056;2023-10-19T06:06:23;11.40;1.00
506;DHT22;551;48.524;9.056;2023-10-19T06:08:49;11.50;1.00
506;DHT22;551;48.524;9.056;2023-10-19T06:11:22;11.50;1.00
506;DHT22;551;48.524;9.056;2023-10-19T06:13:48;11.50;1.00
506;DHT22;551;48.524;9.056;2023-10-19T06:16:13;11.60;1.00
506;DHT22;551;48.524;9.056;2023-10-19T06:18:40;11.60;1.00
506;DHT22;551;48.524;9.056;2023-10-19T06:21:08;11.60;1.00
506;DHT22;551;48.524;9.056;2023-10-19T06:23:35;11.70;1.00
506;DHT22;551;48.524;9.056;2023-10-19T06:26:09;11.70;1.00
506;DHT22;551;48.524;9.056;2023-10-19T06:28:36;11.70;1.00
506;DHT22;551;48.524;9.056;2023-10-19T06:31:05;11.70;1.00
506;DHT22;551;48.524;9.056;2023-10-19T06:33:30;11.70;1.00
506;DHT22;551;48.524;9.056;2023-10-19T06:35:58;11.80;1.00
506;DHT22;551;48.524;9.056;2023-10-19T06:38:24;11.70;1.00
506;DHT22;551;48.524;9.056;2023-10-19T06:40:51;11.80;1.00
506;DHT22;551;48.524;9.056;2023-10-19T06:43:17;11.80;1.00
506;DHT22;551;48.524;9.056;2023-10-19T06:45:44;11.80;1.00
506;DHT22;551;48.524;9.056;2023-10-19T06:48:10;11.90;1.00
506;DHT22;551;48.524;9.056;2023-10-19T06:50:37;11.90;1.00
506;DHT22;551;48.524;9.056;2023-10-19T06:53:03;11.90;1.00
506;DHT22;551;48.524;9.056;2023-10-19T06:55:30;12.00;1.00
506;DHT22;551;48.524;9.056;2023-10-19T06:57:56;11.90;1.00
506;DHT22;551;48.524;9.056;2023-10-19T07:00:23;12.00;1.00
506;DHT22;551;48.524;9.056;2023-10-19T07:02:53;12.00;1.00
506;DHT22;551;48.524;9.056;2023-10-19T07:05:20;12.00;1.00
506;DHT22;551;48.524;9.056;2023-10-19T07:07:50;12.10;1.00
506;DHT22;551;48.524;9.056;2023-10-19T07:10:18;12.20;1.00
506;DHT22;551;48.524;9.056;2023-10-19T07:12:53;12.20;1.00
506;DHT22;551;48.524;9.056;2023-10-19T07:15:19;12.30;1.00
506;DHT22;551;48.524;9.056;2023-10-19T07:17:47;12.40;1.00
506;DHT22;551;48.524;9.056;2023-10-19T07:20:15;12.40;1.00
506;DHT22;551;48.524;9.056;2023-10-19T07:23:03;12.50;1.00
506;DHT22;551;48.524;9.056;2023-10-19T07:25:35;12.50;1.00
506;DHT22;551;48.524;9.056;2023-10-19T07:28:09;12.60;1.00
506;DHT22;551;48.524;9.056;2023-10-19T07:30:35;12.70;1.00
506;DHT22;551;48.524;9.056;2023-10-19T07:33:00;12.80;1.00
506;DHT22;551;48.524;9.056;2023-10-19T07:35:27;13.00;1.00
506;DHT22;551;48.524;9.056;2023-10-19T07:37:53;13.20;1.00
506;DHT22;551;48.524;9.056;2023-10-19T07:40:19;13.40;1.00
506;DHT22;551;48.524;9.056;2023-10-19T07:42:45;13.50;1.00
506;DHT22;551;48.524;9.056;2023-10-19T07:45:12;13.60;1.00
506;DHT22;551;48.524;9.056;2023-10-19T07:47:41;13.70;1.00
506;DHT22;551;48.524;9.056;2023-10-19T07:50:13;13.80;1.00
506;DHT22;551;48.524;9.056;2023-10-19T07:52:51;13.90;1.00
506;DHT22;551;48.524;9.056;2023-10-19T07:55:18;14.00;1.00
506;DHT22;551;48.524;9.056;2023-10-19T07:57:44;14.10;1.00
506;DHT22;551;48.524;9.056;2023-10-19T08:00:11;14.20;1.00
506;DHT22;551;48.524;9.056;2023-10-19T08:02:39;14.40;1.00
506;DHT22;551;48.524;9.056;2023-10-19T08:05:08;14.70;1.00
506;DHT22;551;48.524;9.056;2023-10-19T08:07:37;15.00;1.00
506;DHT22;551;48.524;9.056;2023-10-19T08:10:05;15.20;1.00
506;DHT22;551;48.524;9.056;2023-10-19T08:12:32;15.50;1.00
506;DHT22;551;48.524;9.056;2023-10-19T08:15:01;15.70;1.00
506;DHT22;551;48.524;9.056;2023-10-19T08:17:27;16.30;1.00
506;DHT22;551;48.524;9.056;2023-10-19T08:19:52;17.30;1.00
506;DHT22;551;48.524;9.056;2023-10-19T08:22:18;18.30;1.00
506;DHT22;551;48.524;9.056;2023-10-19T08:24:44;18.90;1.00
506;DHT22;551;48.524;9.056;2023-10-19T08:27:11;19.20;1.00
506;DHT22;551;48.524;9.056;2023-10-19T08:29:38;19.50;1.00
506;DHT22;551;48.524;9.056;2023-10-19T08:32:04;19.70;1.00
506;DHT22;551;48.524;9.056;2023-10-19T08:34:33;19.60;1.00
506;DHT22;551;48.524;9.056;2023-10-19T08:37:00;19.40;1.00
506;DHT22;551;48.524;9.056;2023-10-19T08:39:26;19.30;1.00
506;DHT22;551;48.524;9.056;2023-10-19T08:41:52;19.10;1.00
506;DHT22;551;48.524;9.056;2023-10-19T08:44:20;19.00;1.00
506;DHT22;551;48.524;9.056;2023-10-19T08:46:45;18.80;1.00
506;DHT22;551;48.524;9.056;2023-10-19T08:49:13;18.60;1.00
506;DHT22;551;48.524;9.056;2023-10-19T08:51:40;18.50;1.00
506;DHT22;551;48.524;9.056;2023-10-19T08:54:10;18.40;1.00
506;DHT22;551;48.524;9.056;2023-10-19T08:56:37;18.20;1.00
506;DHT22;551;48.524;9.056;2023-10-19T08:59:02;18.20;1.00
506;DHT22;551;48.524;9.056;2023-10-19T09:01:28;18.20;1.00
506;DHT22;551;48.524;9.056;2023-10-19T09:03:57;18.20;1.00
506;DHT22;551;48.524;9.056;2023-10-19T09:06:24;18.10;1.00
506;DHT22;551;48.524;9.056;2023-10-19T09:08:49;18.10;1.00
506;DHT22;551;48.524;9.056;2023-10-19T09:11:15;18.00;1.00
506;DHT22;551;48.524;9.056;2023-10-19T09:13:46;18.10;1.00
506;DHT22;551;48.524;9.056;2023-10-19T09:16:16;18.10;1.00
506;DHT22;551;48.524;9.056;2023-10-19T09:18:42;18.10;1.00
506;DHT22;551;48.524;9.056;2023-10-19T09:21:08;18.10;1.00
506;DHT22;551;48.524;9.056;2023-10-19T09:23:37;18.30;1.00
506;DHT22;551;48.524;9.056;2023-10-19T09:26:04;18.30;1.00
506;DHT22;551;48.524;9.056;2023-10-19T09:28:31;18.30;1.00
506;DHT22;551;48.524;9.056;2023-10-19T09:31:00;18.30;1.00
506;DHT22;551;48.524;9.056;2023-10-19T09:33:26;18.30;1.00
506;DHT22;551;48.524;9.056;2023-10-19T09:35:52;18.30;1.00
506;DHT22;551;48.524;9.056;2023-10-19T09:38:19;18.20;1.00
506;DHT22;551;48.524;9.056;2023-10-19T09:40:51;18.00;1.00
506;DHT22;551;48.524;9.056;2023-10-19T09:43:30;17.90;1.00
506;DHT22;551;48.524;9.056;2023-10-19T09:46:01;17.80;1.00
506;DHT22;551;48.524;9.056;2023-10-19T09:48:31;17.70;1.00
506;DHT22;551;48.524;9.056;2023-10-19T09:51:01;17.60;1.00
506;DHT22;551;48.524;9.056;2023-10-19T09:53:29;17.60;1.00
506;DHT22;551;48.524;9.056;2023-10-19T09:55:58;17.60;1.00
506;DHT22;551;48.524;9.056;2023-10-19T09:58:27;17.60;1.00
506;DHT22;551;48.524;9.056;2023-10-19T10:00:57;17.70;1.00
506;DHT22;551;48.524;9.056;2023-10-19T10:06:13;17.90;1.00
506;DHT22;551;48.524;9.056;2023-10-19T10:08:41;18.10;1.00
506;DHT22;551;48.524;9.056;2023-10-19T10:11:21;18.20;1.00
506;DHT22;551;48.524;9.056;2023-10-19T10:13:49;18.30;1.00
506;DHT22;551;48.524;9.056;2023-10-19T10:16:22;18.50;1.00
506;DHT22;551;48.524;9.056;2023-10-19T10:18:50;18.60;1.00
506;DHT22;551;48.524;9.056;2023-10-19T10:21:23;18.80;1.00
506;DHT22;551;48.524;9.056;2023-10-19T10:23:56;18.90;1.00
506;DHT22;551;48.524;9.056;2023-10-19T10:26:24;19.10;1.00
506;DHT22;551;48.524;9.056;2023-10-19T10:29:14;19.20;1.00
506;DHT22;551;48.524;9.056;2023-10-19T10:31:50;19.20;1.00
506;DHT22;551;48.524;9.056;2023-10-19T10:37:08;19.10;1.00
506;DHT22;551;48.524;9.056;2023-10-19T10:39:35;19.00;1.00
506;DHT22;551;48.524;9.056;2023-10-19T10:42:06;19.00;1.00
506;DHT22;551;48.524;9.056;2023-10-19T10:47:01;18.90;1.00
506;DHT22;551;48.524;9.056;2023-10-19T10:49:26;18.90;1.00
506;DHT22;551;48.524;9.056;2023-10-19T10:51:54;18.80;1.00
506;DHT22;551;48.524;9.056;2023-10-19T10:54:21;18.80;1.00
506;DHT22;551;48.524;9.056;2023-10-19T10:56:47;18.70;1.00
506;DHT22;551;48.524;9.056;2023-10-19T10:59:14;18.50;1.00
506;DHT22;551;48.524;9.056;2023-10-19T11:01:40;18.40;1.00
506;DHT22;551;48.524;9.056;2023-10-19T11:04:10;18.30;1.00
506;DHT22;551;48.524;9.056;2023-10-19T11:06:51;18.10;1.00
506;DHT22;551;48.524;9.056;2023-10-19T11:09:17;18.00;1.00
506;DHT22;551;48.524;9.056;2023-10-19T11:11:47;17.80;1.00
506;DHT22;551;48.524;9.056;2023-10-19T11:14:14;17.80;1.00
506;DHT22;551;48.524;9.056;2023-10-19T11:16:41;17.70;1.00
506;DHT22;551;48.524;9.056;2023-10-19T11:19:08;17.60;1.00
506;DHT22;551;48.524;9.056;2023-10-19T11:21:35;17.60;1.00
506;DHT22;551;48.524;9.056;2023-10-19T11:24:01;17.60;1.00
506;DHT22;551;48.524;9.056;2023-10-19T11:26:27;17.60;1.00
506;DHT22;551;48.524;9.056;2023-10-19T11:29:00;17.70;1.00
506;DHT22;551;48.524;9.056;2023-10-19T11:31:26;17.70;1.00
506;DHT22;551;48.524;9.056;2023-10-19T11:33:55;17.80;1.00
506;DHT22;551;48.524;9.056;2023-10-19T11:36:26;17.90;1.00
506;DHT22;551;48.524;9.056;2023-10-19T11:38:52;18.00;1.00
506;DHT22;551;48.524;9.056;2023-10-19T11:41:18;18.00;1.00
506;DHT22;551;48.524;9.056;2023-10-19T11:43:45;18.00;1.00
506;DHT22;551;48.524;9.056;2023-10-19T11:46:11;18.00;1.00
506;DHT22;551;48.524;9.056;2023-10-19T11:48:37;18.00;1.00
506;DHT22;551;48.524;9.056;2023-10-19T11:51:05;18.00;1.00
506;DHT22;551;48.524;9.056;2023-10-19T11:53:35;17.80;1.00
506;DHT22;551;48.524;9.056;2023-10-19T11:56:08;17.70;1.00
506;DHT22;551;48.524;9.056;2023-10-19T11:58:36;17.60;1.00
506;DHT22;551;48.524;9.056;2023-10-19T12:01:10;17.50;1.00
506;DHT22;551;48.524;9.056;2023-10-19T12:03:42;17.40;1.00
506;DHT22;551;48.524;9.056;2023-10-19T12:06:11;17.30;1.00
506;DHT22;551;48.524;9.056;2023-10-19T12:08:38;17.30;1.00
506;DHT22;551;48.524;9.056;2023-10-19T12:11:05;17.20;1.00
506;DHT22;551;48.524;9.056;2023-10-19T12:13:41;17.20;1.00
506;DHT22;551;48.524;9.056;2023-10-19T12:16:09;17.20;1.00
506;DHT22;551;48.524;9.056;2023-10-19T12:18:40;17.20;1.00
506;DHT22;551;48.524;9.056;2023-10-19T12:21:07;17.20;1.00
506;DHT22;551;48.524;9.056;2023-10-19T12:23:40;17.30;1.00
506;DHT22;551;48.524;9.056;2023-10-19T12:26:06;17.40;1.00
506;DHT22;551;48.524;9.056;2023-10-19T12:28:37;17.50;1.00
506;DHT22;551;48.524;9.056;2023-10-19T12:31:03;17.60;1.00
506;DHT22;551;48.524;9.056;2023-10-19T12:33:30;17.70;1.00
506;DHT22;551;48.524;9.056;2023-10-19T12:35:56;17.80;1.00
506;DHT22;551;48.524;9.056;2023-10-19T12:38:25;17.90;1.00
506;DHT22;551;48.524;9.056;2023-10-19T12:40:51;18.00;1.00
506;DHT22;551;48.524;9.056;2023-10-19T12:43:18;18.00;1.00
506;DHT22;551;48.524;9.056;2023-10-19T12:45:50;18.00;1.00
506;DHT22;551;48.524;9.056;2023-10-19T12:48:16;18.00;1.00
506;DHT22;551;48.524;9.056;2023-10-19T12:50:42;17.90;1.00
506;DHT22;551;48.524;9.056;2023-10-19T12:53:08;17.90;1.00
506;DHT22;551;48.524;9.056;2023-10-19T12:55:35;17.90;1.00
506;DHT22;551;48.524;9.056;2023-10-19T12:58:02;17.90;1.00
506;DHT22;551;48.524;9.056;2023-10-19T13:00:37;18.30;1.00
506;DHT22;551;48.524;9.056;2023-10-19T13:03:14;18.90;1.00
506;DHT22;551;48.524;9.056;2023-10-19T13:05:40;19.50;1.00
506;DHT22;551;48.524;9.056;2023-10-19T13:08:13;19.90;1.00
506;DHT22;551;48.524;9.056;2023-10-19T13:10:40;20.10;1.00
506;DHT22;551;48.524;9.056;2023-10-19T13:13:08;20.20;1.00
506;DHT22;551;48.524;9.056;2023-10-19T13:15:37;20.10;1.00
506;DHT22;551;48.524;9.056;2023-10-19T13:18:04;20.00;1.00
506;DHT22;551;48.524;9.056;2023-10-19T13:20:31;19.90;1.00
506;DHT22;551;48.524;9.056;2023-10-19T13:23:04;19.80;1.00
506;DHT22;551;48.524;9.056;2023-10-19T13:25:30;19.60;1.00
506;DHT22;551;48.524;9.056;2023-10-19T13:28:15;19.50;1.00
506;DHT22;551;48.524;9.056;2023-10-19T13:30:42;19.30;1.00
506;DHT22;551;48.524;9.056;2023-10-19T13:33:09;19.10;1.00
506;DHT22;551;48.524;9.056;2023-10-19T13:35:36;19.00;1.00
506;DHT22;551;48.524;9.056;2023-10-19T13:38:03;18.90;1.00
506;DHT22;551;48.524;9.056;2023-10-19T13:40:29;18.80;1.00
506;DHT22;551;48.524;9.056;2023-10-19T13:42:56;18.80;1.00
506;DHT22;551;48.524;9.056;2023-10-19T13:45:22;18.70;1.00
506;DHT22;551;48.524;9.056;2023-10-19T13:47:47;18.70;1.00
506;DHT22;551;48.524;9.056;2023-10-19T13:50:13;18.70;1.00
506;DHT22;551;48.524;9.056;2023-10-19T13:52:38;18.70;1.00
506;DHT22;551;48.524;9.056;2023-10-19T13:55:05;18.70;1.00
506;DHT22;551;48.524;9.056;2023-10-19T13:57:33;18.70;1.00
506;DHT22;551;48.524;9.056;2023-10-19T13:59:58;18.70;1.00
506;DHT22;551;48.524;9.056;2023-10-19T14:02:24;18.60;1.00
506;DHT22;551;48.524;9.056;2023-10-19T14:04:50;18.60;1.00
506;DHT22;551;48.524;9.056;2023-10-19T14:07:17;18.60;1.00
506;DHT22;551;48.524;9.056;2023-10-19T14:09:42;18.60;1.00
506;DHT22;551;48.524;9.056;2023-10-19T14:12:08;18.60;1.00
506;DHT22;551;48.524;9.056;2023-10-19T14:14:34;18.60;1.00
506;DHT22;551;48.524;9.056;2023-10-19T14:17:00;18.50;1.00
506;DHT22;551;48.524;9.056;2023-10-19T14:19:26;18.40;1.00
506;DHT22;551;48.524;9.056;2023-10-19T14:21:52;18.30;1.00
506;DHT22;551;48.524;9.056;2023-10-19T14:24:18;18.30;1.00
506;DHT22;551;48.524;9.056;2023-10-19T14:26:46;18.30;1.00
506;DHT22;551;48.524;9.056;2023-10-19T14:29:12;18.20;1.00
506;DHT22;551;48.524;9.056;2023-10-19T14:31:39;18.10;1.00
506;DHT22;551;48.524;9.056;2023-10-19T14:34:04;18.10;1.00
506;DHT22;551;48.524;9.056;2023-10-19T14:36:30;18.00;1.00
506;DHT22;551;48.524;9.056;2023-10-19T14:38:56;18.00;1.00
506;DHT22;551;48.524;9.056;2023-10-19T14:41:21;17.90;1.00
506;DHT22;551;48.524;9.056;2023-10-19T14:43:47;17.90;1.00
506;DHT22;551;48.524;9.056;2023-10-19T14:46:13;17.90;1.00
506;DHT22;551;48.524;9.056;2023-10-19T14:48:38;17.90;1.00
506;DHT22;551;48.524;9.056;2023-10-19T14:51:04;17.90;1.00
506;DHT22;551;48.524;9.056;2023-10-19T14:53:30;17.90;1.00
506;DHT22;551;48.524;9.056;2023-10-19T14:55:56;18.00;1.00
506;DHT22;551;48.524;9.056;2023-10-19T14:58:28;18.00;1.00
506;DHT22;551;48.524;9.056;2023-10-19T15:00:54;17.90;1.00
506;DHT22;551;48.524;9.056;2023-10-19T15:03:31;18.00;1.00
506;DHT22;551;48.524;9.056;2023-10-19T15:05:57;18.00;1.00
506;DHT22;551;48.524;9.056;2023-10-19T15:08:24;18.10;1.00
506;DHT22;551;48.524;9.056;2023-10-19T15:10:52;18.20;1.00
506;DHT22;551;48.524;9.056;2023-10-19T15:13:19;18.30;1.00
506;DHT22;551;48.524;9.056;2023-10-19T15:15:45;18.40;1.00
506;DHT22;551;48.524;9.056;2023-10-19T15:18:10;18.40;1.00
506;DHT22;551;48.524;9.056;2023-10-19T15:20:36;18.30;1.00
506;DHT22;551;48.524;9.056;2023-10-19T15:23:01;18.40;1.00
506;DHT22;551;48.524;9.056;2023-10-19T15:25:27;18.40;1.00
506;DHT22;551;48.524;9.056;2023-10-19T15:27:53;18.40;1.00
506;DHT22;551;48.524;9.056;2023-10-19T15:30:20;18.40;1.00
506;DHT22;551;48.524;9.056;2023-10-19T15:32:50;18.40;1.00
506;DHT22;551;48.524;9.056;2023-10-19T15:35:17;18.20;1.00
506;DHT22;551;48.524;9.056;2023-10-19T15:37:48;18.20;1.00
506;DHT22;551;48.524;9.056;2023-10-19T15:40:14;18.10;1.00
506;DHT22;551;48.524;9.056;2023-10-19T15:42:40;18.00;1.00
506;DHT22;551;48.524;9.056;2023-10-19T15:45:09;18.00;1.00
506;DHT22;551;48.524;9.056;2023-10-19T15:47:34;17.90;1.00
506;DHT22;551;48.524;9.056;2023-10-19T15:50:00;17.90;1.00
506;DHT22;551;48.524;9.056;2023-10-19T15:52:26;17.80;1.00
506;DHT22;551;48.524;9.056;2023-10-19T15:54:57;17.80;1.00
506;DHT22;551;48.524;9.056;2023-10-19T15:57:23;17.70;1.00
506;DHT22;551;48.524;9.056;2023-10-19T15:59:50;17.60;1.00
506;DHT22;551;48.524;9.056;2023-10-19T16:02:16;17.50;1.00
506;DHT22;551;48.524;9.056;2023-10-19T16:04:42;17.40;1.00
506;DHT22;551;48.524;9.056;2023-10-19T16:07:09;17.40;1.00
506;DHT22;551;48.524;9.056;2023-10-19T16:09:36;17.30;1.00
506;DHT22;551;48.524;9.056;2023-10-19T16:12:01;17.20;1.00
506;DHT22;551;48.524;9.056;2023-10-19T16:14:27;17.20;1.00
506;DHT22;551;48.524;9.056;2023-10-19T16:16:53;17.20;1.00
506;DHT22;551;48.524;9.056;2023-10-19T16:19:18;17.10;1.00
506;DHT22;551;48.524;9.056;2023-10-19T16:21:44;17.10;1.00
506;DHT22;551;48.524;9.056;2023-10-19T16:24:11;17.10;1.00
506;DHT22;551;48.524;9.056;2023-10-19T16:26:37;17.00;1.00
506;DHT22;551;48.524;9.056;2023-10-19T16:29:04;16.90;1.00
506;DHT22;551;48.524;9.056;2023-10-19T16:31:42;16.90;1.00
506;DHT22;551;48.524;9.056;2023-10-19T16:34:10;16.80;1.00
506;DHT22;551;48.524;9.056;2023-10-19T16:36:36;16.80;1.00
506;DHT22;551;48.524;9.056;2023-10-19T16:39:03;16.80;1.00
506;DHT22;551;48.524;9.056;2023-10-19T16:41:30;16.80;1.00
506;DHT22;551;48.524;9.056;2023-10-19T16:43:55;16.80;1.00
506;DHT22;551;48.524;9.056;2023-10-19T16:46:21;16.80;1.00
506;DHT22;551;48.524;9.056;2023-10-19T16:48:46;16.80;1.00
506;DHT22;551;48.524;9.056;2023-10-19T16:51:12;16.80;1.00
506;DHT22;551;48.524;9.056;2023-10-19T16:53:37;16.70;1.00
506;DHT22;551;48.524;9.056;2023-10-19T16:56:04;16.70;1.00
506;DHT22;551;48.524;9.056;2023-10-19T16:58:30;16.60;1.00
506;DHT22;551;48.524;9.056;2023-10-19T17:00:56;16.60;1.00
506;DHT22;551;48.524;9.056;2023-10-19T17:03:22;16.50;1.00
506;DHT22;551;48.524;9.056;2023-10-19T17:05:48;16.50;1.00